Time;durP1;ratioP1;P1;durP2;ratioP2;P2;SDS_P1;SDS_P2;PMS_P1;PMS_P2;Temp;Humidity;BMP_temperature;BMP_pressure;BME280_temperature;BME280_humidity;BME280_pressure;Samples;Min_cycle;Max_cycle;Signal;HPM_P1;HPM_P2
2022/06/28 00:01:10;;;;;;;2.45;2.35;;;21.30;79.90;;;;;;638205;220;26794;-73
2022/06/28 00:03:38;;;;;;;2.60;2.50;;;21.30;80.60;;;;;;638419;221;26515;-72
2022/06/28 00:06:05;;;;;;;2.60;2.40;;;21.20;81.20;;;;;;640682;221;27101;-72
2022/06/28 00:08:32;;;;;;;2.62;2.50;;;21.20;82.10;;;;;;646168;221;27221;-73
2022/06/28 00:10:59;;;;;;;2.53;2.33;;;21.20;82.30;;;;;;638222;225;26571;-72
2022/06/28 00:13:26;;;;;;;2.58;2.30;;;21.20;83.70;;;;;;638872;225;26574;-72
2022/06/28 00:18:27;;;;;;;2.70;2.50;;;20.80;91.90;;;;;;638938;224;26583;-73
2022/06/28 00:20:54;;;;;;;2.78;2.60;;;20.50;95.20;;;;;;639344;224;26591;-73
2022/06/28 00:23:22;;;;;;;3.30;2.60;;;20.20;97.50;;;;;;639330;224;26538;-73
2022/06/28 00:25:49;;;;;;;2.87;2.40;;;20.00;99.90;;;;;;639352;224;26767;-73
2022/06/28 00:28:16;;;;;;;2.83;2.67;;;19.80;99.90;;;;;;641009;223;26531;-72
2022/06/28 00:30:44;;;;;;;2.67;2.47;;;19.50;99.90;;;;;;640589;223;26753;-73
2022/06/28 00:33:12;;;;;;;2.83;2.62;;;19.40;99.90;;;;;;639931;224;26814;-73
2022/06/28 00:35:38;;;;;;;3.12;2.92;;;19.40;99.90;;;;;;639840;224;26586;-73
2022/06/28 00:38:06;;;;;;;3.17;2.87;;;19.50;99.90;;;;;;639582;224;26755;-73
2022/06/28 00:40:33;;;;;;;2.85;2.75;;;19.50;99.90;;;;;;639604;225;27145;-73
2022/06/28 00:43:01;;;;;;;2.97;2.65;;;19.50;99.90;;;;;;639584;224;26519;-73
2022/06/28 00:45:29;;;;;;;3.40;2.80;;;19.50;99.90;;;;;;639376;224;26506;-73
2022/06/28 00:47:57;;;;;;;2.75;2.50;;;19.50;99.90;;;;;;639233;224;26526;-71
2022/06/28 00:50:25;;;;;;;3.35;3.05;;;19.50;99.90;;;;;;639301;222;26526;-71
2022/06/28 00:52:58;;;;;;;2.80;2.60;;;19.40;99.90;;;;;;639320;225;26517;-71
2022/06/28 00:55:25;;;;;;;3.10;2.90;;;19.50;99.90;;;;;;639254;225;26534;-70
2022/06/28 00:57:52;;;;;;;3.12;2.95;;;19.60;99.90;;;;;;639324;225;26514;-70
2022/06/28 01:00:20;;;;;;;3.05;2.95;;;19.50;99.90;;;;;;639283;222;26787;-70
2022/06/28 01:02:47;;;;;;;2.55;2.45;;;19.50;99.90;;;;;;639198;225;26534;-70
2022/06/28 01:05:15;;;;;;;3.15;2.95;;;19.50;99.90;;;;;;638927;223;26809;-70
2022/06/28 01:07:42;;;;;;;3.00;2.80;;;19.50;99.90;;;;;;638932;224;26797;-70
2022/06/28 01:10:10;;;;;;;3.17;2.97;;;19.60;99.90;;;;;;638969;225;26603;-70
2022/06/28 01:12:37;;;;;;;3.05;2.85;;;19.60;99.90;;;;;;638956;225;26604;-71
2022/06/28 01:15:05;;;;;;;2.85;2.70;;;19.60;99.90;;;;;;638945;223;26566;-70
2022/06/28 01:17:32;;;;;;;3.35;2.95;;;19.60;99.90;;;;;;639324;224;26553;-70
2022/06/28 01:19:59;;;;;;;3.45;3.08;;;19.60;99.90;;;;;;638934;224;26919;-70
2022/06/28 01:22:27;;;;;;;3.85;3.17;;;19.60;99.90;;;;;;638964;224;26545;-71
2022/06/28 01:24:54;;;;;;;3.47;3.22;;;19.50;99.90;;;;;;638993;224;26776;-70
2022/06/28 01:27:21;;;;;;;3.17;2.97;;;19.60;99.90;;;;;;638890;224;26547;-70
2022/06/28 01:29:48;;;;;;;3.15;2.85;;;19.50;99.90;;;;;;638985;222;26785;-70
2022/06/28 01:32:15;;;;;;;2.78;2.67;;;19.60;99.90;;;;;;638929;224;26578;-70
2022/06/28 01:34:43;;;;;;;3.15;2.85;;;19.50;99.90;;;;;;638970;224;26558;-70
2022/06/28 01:37:11;;;;;;;3.40;3.20;;;19.50;99.90;;;;;;638975;224;26535;-70
2022/06/28 01:39:38;;;;;;;3.35;3.05;;;19.40;99.90;;;;;;640459;222;26537;-70
2022/06/28 01:42:07;;;;;;;3.05;2.85;;;19.40;99.90;;;;;;640267;224;26579;-70
2022/06/28 01:44:34;;;;;;;3.50;3.20;;;19.40;99.90;;;;;;639902;225;26574;-70
2022/06/28 01:47:01;;;;;;;3.03;2.90;;;19.40;99.90;;;;;;639788;223;26789;-70
2022/06/28 01:49:28;;;;;;;3.65;3.15;;;19.40;99.90;;;;;;639529;224;26502;-70
2022/06/28 01:51:55;;;;;;;3.58;2.97;;;19.40;99.90;;;;;;639581;224;26760;-70
2022/06/28 01:54:23;;;;;;;3.40;3.20;;;19.40;99.90;;;;;;639657;224;26511;-70
2022/06/28 01:56:50;;;;;;;2.80;2.60;;;19.40;99.90;;;;;;639478;224;26793;-70
2022/06/28 01:59:17;;;;;;;3.15;2.85;;;19.40;99.90;;;;;;639305;222;26526;-71
2022/06/28 02:01:44;;;;;;;3.30;3.10;;;19.30;99.90;;;;;;639388;224;26479;-71
2022/06/28 02:04:20;;;;;;;3.22;3.03;;;19.20;99.90;;;;;;639259;224;26514;-70
2022/06/28 02:06:48;;;;;;;3.00;2.80;;;19.20;99.90;;;;;;639254;224;26940;-70
2022/06/28 02:09:15;;;;;;;2.72;2.60;;;19.20;99.90;;;;;;639202;224;26545;-70
2022/06/28 02:11:42;;;;;;;3.05;2.85;;;19.20;99.90;;;;;;639164;224;26899;-71
2022/06/28 02:14:09;;;;;;;2.75;2.55;;;19.30;99.90;;;;;;639009;224;26509;-71
2022/06/28 02:16:36;;;;;;;2.65;2.50;;;19.30;99.90;;;;;;638974;224;26786;-71
2022/06/28 02:19:03;;;;;;;3.20;3.00;;;19.30;99.90;;;;;;638897;224;26634;-71
2022/06/28 02:21:36;;;;;;;3.17;2.97;;;19.30;99.90;;;;;;638960;224;26798;-71
2022/06/28 02:24:04;;;;;;;3.20;3.00;;;19.30;99.90;;;;;;639018;224;26557;-71
2022/06/28 02:26:32;;;;;;;3.12;2.92;;;19.30;99.90;;;;;;638924;224;26630;-71
2022/06/28 02:28:59;;;;;;;3.17;2.97;;;19.30;99.90;;;;;;638964;222;26809;-67
2022/06/28 02:31:27;;;;;;;3.28;3.08;;;19.20;99.90;;;;;;639236;224;26557;-67
2022/06/28 02:33:55;;;;;;;2.75;2.65;;;19.20;99.90;;;;;;639370;224;26519;-67
2022/06/28 02:41:29;;;;;;;3.10;2.92;;;19.30;99.90;;;;;;638917;224;26580;-67
2022/06/28 02:43:57;;;;;;;3.40;3.20;;;19.20;99.90;;;;;;638960;224;26594;-67
2022/06/28 02:46:24;;;;;;;2.95;2.85;;;19.20;99.90;;;;;;638944;224;26587;-67
2022/06/28 02:48:51;;;;;;;2.78;2.67;;;19.20;99.90;;;;;;638935;225;26853;-67
2022/06/28 02:51:20;;;;;;;3.10;2.90;;;19.20;99.90;;;;;;640550;223;26566;-67
2022/06/28 02:53:46;;;;;;;3.20;3.00;;;19.20;99.90;;;;;;640245;224;26767;-67
2022/06/28 02:56:13;;;;;;;3.85;2.97;;;19.20;99.90;;;;;;639871;224;26563;-67
2022/06/28 02:58:40;;;;;;;3.08;2.87;;;19.10;99.90;;;;;;639853;222;26785;-67
2022/06/28 03:01:07;;;;;;;3.10;2.80;;;19.20;99.90;;;;;;639633;224;26521;-67
2022/06/28 03:03:34;;;;;;;2.72;2.62;;;19.10;99.90;;;;;;639600;225;26486;-67
2022/06/28 03:06:02;;;;;;;2.70;2.60;;;19.10;99.90;;;;;;639565;223;26535;-67
2022/06/28 03:08:30;;;;;;;2.92;2.72;;;19.10;99.90;;;;;;639403;224;26505;-67
2022/06/28 03:10:58;;;;;;;2.80;2.65;;;19.10;99.90;;;;;;639293;222;26554;-67
2022/06/28 03:13:26;;;;;;;2.80;2.70;;;19.10;99.90;;;;;;639234;224;26514;-67
2022/06/28 03:15:53;;;;;;;2.80;2.60;;;19.10;99.90;;;;;;639315;224;26569;-67
2022/06/28 03:18:21;;;;;;;2.45;2.35;;;19.20;99.90;;;;;;639284;224;26502;-67
2022/06/28 03:20:48;;;;;;;2.60;2.50;;;19.20;99.90;;;;;;639245;219;26763;-67
2022/06/28 03:23:15;;;;;;;2.67;2.58;;;19.20;99.90;;;;;;639248;224;26486;-67
2022/06/28 03:25:42;;;;;;;2.58;2.47;;;19.10;99.90;;;;;;639192;224;26739;-67
2022/06/28 03:28:09;;;;;;;2.90;2.70;;;19.00;99.90;;;;;;638856;224;26586;-67
2022/06/28 03:30:37;;;;;;;2.75;2.50;;;18.90;99.90;;;;;;638855;222;26956;-67
2022/06/28 03:33:04;;;;;;;2.78;2.58;;;18.80;99.90;;;;;;638864;224;26593;-67
2022/06/28 03:35:31;;;;;;;2.70;2.50;;;18.80;99.90;;;;;;638973;219;26551;-67
2022/06/28 03:37:59;;;;;;;2.60;2.40;;;18.70;99.90;;;;;;638964;225;26802;-67
2022/06/28 03:40:26;;;;;;;2.83;2.60;;;18.70;99.90;;;;;;638963;222;26590;-67
2022/06/28 03:42:53;;;;;;;2.90;2.70;;;18.70;99.90;;;;;;639005;224;26567;-67
2022/06/28 03:45:21;;;;;;;2.60;2.40;;;18.70;99.90;;;;;;638983;224;26563;-67
2022/06/28 03:47:49;;;;;;;2.90;2.70;;;18.70;99.90;;;;;;638854;224;26559;-67
2022/06/28 03:50:17;;;;;;;2.62;2.42;;;18.80;99.90;;;;;;638915;223;26583;-67
2022/06/28 03:52:44;;;;;;;2.70;2.60;;;18.70;99.90;;;;;;638993;225;26586;-67
2022/06/28 03:55:11;;;;;;;2.35;2.25;;;18.70;99.90;;;;;;638956;224;26785;-67
2022/06/28 03:57:39;;;;;;;2.60;2.33;;;18.70;99.90;;;;;;638952;223;26570;-67
2022/06/28 04:00:08;;;;;;;2.37;2.28;;;18.80;99.90;;;;;;638909;224;26580;-67
2022/06/28 04:02:36;;;;;;;2.30;2.20;;;18.70;99.90;;;;;;640360;223;26623;-67
2022/06/28 04:05:03;;;;;;;2.75;2.55;;;18.80;99.90;;;;;;640312;224;26513;-67
2022/06/28 04:07:31;;;;;;;2.30;2.20;;;18.70;99.90;;;;;;639950;223;26570;-67
2022/06/28 04:09:58;;;;;;;2.28;2.17;;;18.70;99.90;;;;;;639924;223;27078;-67
2022/06/28 04:12:26;;;;;;;2.28;2.17;;;18.70;99.90;;;;;;639632;223;26505;-67
2022/06/28 04:14:54;;;;;;;2.50;2.40;;;18.70;99.90;;;;;;639567;224;26530;-66
2022/06/28 04:17:22;;;;;;;2.75;2.20;;;18.80;99.90;;;;;;639578;224;26517;-67
2022/06/28 04:19:49;;;;;;;2.47;2.37;;;18.80;99.90;;;;;;639452;223;26538;-67
2022/06/28 04:22:17;;;;;;;2.20;2.10;;;18.60;99.90;;;;;;639327;225;26499;-67
2022/06/28 04:24:45;;;;;;;2.12;1.98;;;18.60;99.90;;;;;;639330;223;26486;-67
2022/06/28 04:27:13;;;;;;;2.28;2.08;;;18.60;99.90;;;;;;639230;224;26478;-67
2022/06/28 04:29:41;;;;;;;2.22;2.05;;;18.60;99.90;;;;;;639285;223;26589;-67
2022/06/28 04:32:08;;;;;;;2.30;2.20;;;18.60;99.90;;;;;;639271;225;26502;-67
2022/06/28 04:34:35;;;;;;;2.20;2.10;;;18.60;99.90;;;;;;639257;224;26502;-67
2022/06/28 04:37:03;;;;;;;2.10;2.00;;;18.50;99.90;;;;;;639219;224;26557;-67
2022/06/28 04:39:30;;;;;;;1.90;1.80;;;18.50;99.90;;;;;;638934;225;26823;-67
2022/06/28 04:41:57;;;;;;;2.17;2.08;;;18.40;99.90;;;;;;639050;224;26595;-66
2022/06/28 04:44:25;;;;;;;2.08;1.98;;;18.30;99.90;;;;;;638945;223;27140;-66
2022/06/28 04:46:52;;;;;;;2.00;1.90;;;18.20;99.90;;;;;;638945;224;26592;-66
2022/06/28 04:49:19;;;;;;;2.20;2.10;;;18.20;99.90;;;;;;638920;223;26562;-66
2022/06/28 04:51:47;;;;;;;2.30;2.20;;;18.10;99.90;;;;;;639003;224;26562;-66
2022/06/28 04:54:15;;;;;;;2.15;2.05;;;18.10;99.90;;;;;;638955;224;26563;-66
2022/06/28 04:56:43;;;;;;;2.00;1.90;;;18.10;99.90;;;;;;638955;224;26555;-67
2022/06/28 04:59:11;;;;;;;1.90;1.80;;;18.00;99.90;;;;;;638929;222;26588;-68
2022/06/28 05:01:38;;;;;;;1.77;1.67;;;18.00;99.90;;;;;;638974;224;26579;-66
2022/06/28 05:04:06;;;;;;;1.67;1.60;;;18.00;99.90;;;;;;638990;224;26567;-66
2022/06/28 05:06:33;;;;;;;1.87;1.77;;;17.90;99.90;;;;;;639001;224;26575;-66
2022/06/28 05:09:00;;;;;;;1.70;1.70;;;17.90;99.90;;;;;;638929;224;26812;-66
2022/06/28 05:11:29;;;;;;;2.12;2.03;;;17.90;99.90;;;;;;638924;224;26570;-67
2022/06/28 05:13:55;;;;;;;1.83;1.73;;;17.90;99.90;;;;;;640137;223;26783;-67
2022/06/28 05:16:23;;;;;;;1.90;1.80;;;17.90;99.90;;;;;;640322;223;26532;-67
2022/06/28 05:18:51;;;;;;;2.00;1.83;;;17.90;99.90;;;;;;639934;222;26532;-67
2022/06/28 05:21:19;;;;;;;1.90;1.80;;;17.90;99.90;;;;;;639935;224;26503;-67
2022/06/28 05:23:46;;;;;;;1.90;1.80;;;17.90;99.90;;;;;;639619;223;26526;-66
2022/06/28 05:26:13;;;;;;;1.55;1.52;;;17.90;99.90;;;;;;639622;224;26517;-66
2022/06/28 05:28:41;;;;;;;1.85;1.75;;;18.00;99.90;;;;;;639566;224;26865;-68
2022/06/28 05:31:08;;;;;;;1.77;1.67;;;18.00;99.90;;;;;;640908;221;26476;-68
2022/06/28 05:33:36;;;;;;;4.47;2.10;;;18.10;99.90;;;;;;649520;221;26741;-67
2022/06/28 05:36:02;;;;;;;4.28;1.73;;;18.10;99.90;;;;;;642634;221;26659;-67
2022/06/28 05:38:29;;;;;;;2.97;1.80;;;18.00;99.90;;;;;;640285;221;26582;-67
2022/06/28 05:40:57;;;;;;;4.93;2.00;;;17.90;99.90;;;;;;638934;223;26847;-67
2022/06/28 05:43:24;;;;;;;4.45;2.10;;;17.90;99.90;;;;;;638967;224;26562;-67
2022/06/28 05:45:51;;;;;;;1.85;1.75;;;17.80;99.90;;;;;;638273;221;26851;-71
2022/06/28 05:48:18;;;;;;;2.65;1.70;;;17.90;99.90;;;;;;647867;221;26517;-70
2022/06/28 05:50:47;;;;;;;1.98;1.87;;;17.70;99.90;;;;;;638201;221;26571;-70
2022/06/28 05:53:13;;;;;;;3.78;1.95;;;17.80;99.90;;;;;;642866;221;26513;-70
2022/06/28 05:55:41;;;;;;;5.35;2.33;;;17.90;99.90;;;;;;641598;221;26573;-70
2022/06/28 05:58:09;;;;;;;4.57;2.10;;;17.80;99.90;;;;;;640324;221;26540;-70
2022/06/28 06:00:39;;;;;;;2.17;1.50;;;17.90;99.90;;;;;;637379;224;26544;-70
2022/06/28 06:03:06;;;;;;;5.78;1.70;;;17.90;99.90;;;;;;641323;221;26733;-69
2022/06/28 06:05:33;;;;;;;2.67;1.80;;;17.90;99.90;;;;;;646688;221;26773;-70
2022/06/28 06:08:00;;;;;;;2.08;1.85;;;18.00;99.90;;;;;;644792;221;26545;-70
2022/06/28 06:10:27;;;;;;;3.72;1.62;;;18.00;99.90;;;;;;642050;221;26490;-69
2022/06/28 06:12:55;;;;;;;1.52;1.50;;;18.10;99.90;;;;;;642689;221;26755;-69
2022/06/28 06:15:22;;;;;;;3.97;1.85;;;18.20;99.90;;;;;;645986;219;26477;-69
2022/06/28 06:17:50;;;;;;;9.73;1.98;;;18.30;99.90;;;;;;640855;221;26483;-70
2022/06/28 06:20:17;;;;;;;2.30;1.73;;;18.30;99.90;;;;;;648622;218;26766;-70
2022/06/28 06:22:47;;;;;;;4.85;1.52;;;18.40;99.90;;;;;;640020;221;26498;-70
2022/06/28 06:25:12;;;;;;;1.67;1.37;;;18.30;99.90;;;;;;647342;218;26761;-70
2022/06/28 06:27:39;;;;;;;1.75;1.65;;;18.30;99.90;;;;;;639844;223;26752;-70
2022/06/28 06:30:07;;;;;;;1.48;1.48;;;18.30;99.20;;;;;;640025;220;26620;-71
2022/06/28 06:32:34;;;;;;;3.90;1.70;;;18.50;99.10;;;;;;650398;221;26534;-71
2022/06/28 06:35:01;;;;;;;1.83;1.35;;;18.80;98.60;;;;;;643036;219;26771;-70
2022/06/28 06:37:29;;;;;;;1.70;1.60;;;19.00;98.20;;;;;;642648;222;26514;-70
2022/06/28 06:39:56;;;;;;;1.73;1.55;;;19.20;97.10;;;;;;649714;221;27218;-70
2022/06/28 06:42:23;;;;;;;2.12;1.70;;;19.20;96.20;;;;;;640235;221;26514;-70
2022/06/28 06:44:51;;;;;;;1.42;1.20;;;19.10;96.10;;;;;;645790;218;27120;-71
2022/06/28 06:47:17;;;;;;;2.28;1.62;;;19.10;96.30;;;;;;639077;225;26538;-71
2022/06/28 06:49:45;;;;;;;3.67;1.60;;;19.00;96.20;;;;;;645786;221;27116;-71
2022/06/28 06:52:13;;;;;;;10.15;1.80;;;19.20;95.50;;;;;;651115;221;26511;-72
2022/06/28 06:54:41;;;;;;;1.35;1.35;;;19.10;95.80;;;;;;638474;221;26558;-70
2022/06/28 06:57:09;;;;;;;1.48;1.37;;;19.20;95.80;;;;;;639110;224;26506;-72
2022/06/28 06:59:37;;;;;;;1.23;1.23;;;19.40;94.80;;;;;;639071;224;26586;-70
2022/06/28 07:02:05;;;;;;;1.87;1.77;;;19.50;93.20;;;;;;644041;223;26543;-70
2022/06/28 07:04:32;;;;;;;3.08;1.37;;;19.50;93.30;;;;;;639330;221;26503;-71
2022/06/28 07:07:00;;;;;;;1.62;1.52;;;19.60;93.30;;;;;;641685;221;26485;-71
2022/06/28 07:09:26;;;;;;;1.50;1.40;;;19.80;92.70;;;;;;645204;221;26822;-71
2022/06/28 07:11:53;;;;;;;2.03;1.80;;;19.80;92.70;;;;;;637856;224;26540;-71
2022/06/28 07:14:21;;;;;;;1.67;1.37;;;19.70;92.20;;;;;;648313;221;26831;-69
2022/06/28 07:16:48;;;;;;;1.75;1.20;;;19.70;92.20;;;;;;649557;220;26805;-71
2022/06/28 07:19:16;;;;;;;1.73;1.50;;;19.60;91.50;;;;;;637311;224;26547;-71
2022/06/28 07:21:44;;;;;;;1.60;1.50;;;19.60;92.10;;;;;;644868;221;26600;-72
2022/06/28 07:24:12;;;;;;;1.92;1.30;;;20.00;91.40;;;;;;640675;220;26803;-72
2022/06/28 07:26:38;;;;;;;1.37;1.27;;;20.00;91.40;;;;;;638971;225;26771;-71
2022/06/28 07:29:05;;;;;;;1.60;1.50;;;20.00;91.10;;;;;;637700;225;26508;-71
2022/06/28 07:31:33;;;;;;;1.80;1.30;;;20.20;90.80;;;;;;644311;221;26996;-71
2022/06/28 07:34:01;;;;;;;1.40;1.40;;;20.50;89.50;;;;;;642094;221;26541;-72
2022/06/28 07:36:29;;;;;;;1.27;1.27;;;20.50;87.90;;;;;;639877;220;26511;-71
2022/06/28 07:38:56;;;;;;;1.30;1.20;;;20.50;87.80;;;;;;638952;223;26560;-71
2022/06/28 07:41:23;;;;;;;1.12;1.12;;;20.30;87.80;;;;;;638478;224;26770;-71
2022/06/28 07:43:51;;;;;;;1.35;1.35;;;20.40;88.00;;;;;;639208;224;26583;-70
2022/06/28 07:46:18;;;;;;;1.95;1.33;;;20.40;87.40;;;;;;639397;223;26591;-70
2022/06/28 07:48:45;;;;;;;1.27;1.27;;;20.30;88.30;;;;;;640442;222;26765;-71
2022/06/28 07:53:45;;;;;;;1.27;1.17;;;20.60;87.50;;;;;;640316;221;26508;-71
2022/06/28 07:56:13;;;;;;;1.10;1.10;;;20.80;85.60;;;;;;646810;219;26532;-71
2022/06/28 07:58:40;;;;;;;1.20;1.20;;;20.70;85.70;;;;;;650486;217;26516;-72
2022/06/28 08:01:08;;;;;;;1.12;1.12;;;21.30;83.20;;;;;;651156;221;26500;-71
2022/06/28 08:03:36;;;;;;;1.20;1.20;;;21.30;83.20;;;;;;644143;221;26578;-71
2022/06/28 08:06:03;;;;;;;1.10;1.10;;;21.40;82.50;;;;;;647051;221;26771;-72
2022/06/28 08:08:31;;;;;;;1.20;1.20;;;21.00;81.80;;;;;;639313;221;26550;-71
2022/06/28 08:10:59;;;;;;;1.60;1.20;;;21.00;83.50;;;;;;638839;223;26522;-71
2022/06/28 08:13:27;;;;;;;1.33;0.98;;;20.80;82.70;;;;;;643255;221;26564;-71
2022/06/28 08:15:56;;;;;;;1.30;1.12;;;21.00;81.80;;;;;;642257;221;26552;-71
2022/06/28 08:18:22;;;;;;;1.25;1.25;;;21.00;81.80;;;;;;638564;225;26566;-72
2022/06/28 08:20:49;;;;;;;1.17;1.17;;;21.30;80.50;;;;;;640824;221;26553;-73
2022/06/28 08:23:16;;;;;;;2.05;1.27;;;21.40;79.40;;;;;;650737;221;26773;-72
2022/06/28 08:25:46;;;;;;;0.95;0.95;;;21.50;78.80;;;;;;643846;221;26515;-72
2022/06/28 08:28:11;;;;;;;1.17;1.17;;;21.60;77.70;;;;;;638927;221;26596;-72
2022/06/28 08:30:39;;;;;;;0.90;0.90;;;21.40;77.20;;;;;;639278;221;26542;-71
2022/06/28 08:33:07;;;;;;;1.00;1.00;;;21.60;76.60;;;;;;638357;221;26596;-71
2022/06/28 08:35:35;;;;;;;1.00;1.00;;;21.60;77.30;;;;;;637918;225;26511;-71
2022/06/28 08:38:05;;;;;;;1.92;0.93;;;21.60;75.50;;;;;;646971;221;26567;-71
2022/06/28 08:40:32;;;;;;;1.02;1.02;;;21.60;75.40;;;;;;639263;221;26764;-71
2022/06/28 08:43:00;;;;;;;1.10;1.00;;;22.20;74.00;;;;;;637620;225;26527;-71
2022/06/28 08:45:27;;;;;;;0.98;0.98;;;22.80;71.50;;;;;;644006;221;26787;-71
2022/06/28 08:47:54;;;;;;;0.85;0.85;;;23.00;71.40;;;;;;643488;221;26566;-71
2022/06/28 08:50:24;;;;;;;0.82;0.82;;;23.20;69.40;;;;;;638908;222;26825;-71
2022/06/28 08:52:52;;;;;;;0.80;0.80;;;23.00;70.20;;;;;;649052;220;26534;-71
2022/06/28 08:55:20;;;;;;;0.90;0.90;;;22.90;69.00;;;;;;644564;221;26508;-71
2022/06/28 08:57:48;;;;;;;0.80;0.80;;;22.70;69.90;;;;;;644334;221;26573;-71
2022/06/28 09:00:15;;;;;;;0.95;0.95;;;22.60;69.80;;;;;;639531;224;26534;-71
2022/06/28 09:02:43;;;;;;;1.10;0.98;;;23.60;67.10;;;;;;645480;222;26533;-71
2022/06/28 09:05:11;;;;;;;1.00;1.00;;;23.60;67.10;;;;;;643568;221;26544;-71
2022/06/28 09:07:39;;;;;;;0.80;0.80;;;23.50;66.00;;;;;;651002;221;26539;-71
2022/06/28 09:10:06;;;;;;;0.90;0.90;;;23.50;66.00;;;;;;651091;218;26516;-71
2022/06/28 09:12:33;;;;;;;1.00;0.80;;;23.50;66.10;;;;;;651089;221;26499;-70
2022/06/28 09:15:04;;;;;;;1.10;1.10;;;23.20;66.70;;;;;;647469;221;26507;-71
2022/06/28 09:17:29;;;;;;;78.10;17.17;;;23.30;65.50;;;;;;637393;225;26584;-72
2022/06/28 09:19:57;;;;;;;110.35;24.12;;;23.80;64.10;;;;;;638713;225;26550;-71
2022/06/28 09:22:27;;;;;;;149.68;31.77;;;24.00;63.20;;;;;;638905;221;26547;-72
2022/06/28 09:24:54;;;;;;;59.10;17.70;;;24.10;63.30;;;;;;647535;221;26589;-71
2022/06/28 09:27:37;;;;;;;47.33;12.73;;;24.50;61.60;;;;;;642829;220;26505;-70
2022/06/28 09:30:04;;;;;;;69.53;18.08;;;24.50;61.60;;;;;;649938;218;26553;-70
2022/06/28 09:32:32;;;;;;;23.35;7.05;;;24.50;61.00;;;;;;641325;220;26525;-70
2022/06/28 09:34:59;;;;;;;23.02;7.32;;;24.00;61.10;;;;;;650765;221;27356;-70
2022/06/28 09:37:33;;;;;;;32.05;7.70;;;24.00;62.00;;;;;;645898;221;26495;-71
2022/06/28 09:40:09;;;;;;;25.12;6.43;;;23.50;62.40;;;;;;646109;218;26619;-71
2022/06/28 09:42:36;;;;;;;14.60;4.32;;;23.30;62.40;;;;;;647271;221;26552;-71
2022/06/28 09:45:04;;;;;;;13.93;4.28;;;23.60;62.30;;;;;;638621;224;26516;-70
2022/06/28 09:47:32;;;;;;;13.45;4.65;;;24.00;60.00;;;;;;638773;225;26531;-71
2022/06/28 09:50:00;;;;;;;8.07;3.67;;;24.00;59.50;;;;;;638803;224;26536;-71
2022/06/28 09:52:28;;;;;;;8.75;2.85;;;24.00;59.40;;;;;;644481;223;26553;-72
2022/06/28 09:54:55;;;;;;;3.75;1.83;;;24.00;59.40;;;;;;644559;223;26741;-72
2022/06/28 09:57:22;;;;;;;3.05;1.83;;;24.60;59.00;;;;;;642197;221;26566;-72
2022/06/28 09:59:49;;;;;;;1.80;1.65;;;24.40;59.00;;;;;;644985;221;26832;-71
2022/06/28 10:02:17;;;;;;;3.30;1.67;;;24.40;59.50;;;;;;640581;224;26500;-71
2022/06/28 10:04:45;;;;;;;1.73;1.30;;;24.00;58.90;;;;;;647458;221;26769;-71
2022/06/28 10:07:13;;;;;;;2.25;1.35;;;23.50;60.40;;;;;;652152;221;26478;-71
2022/06/28 10:09:40;;;;;;;1.48;1.10;;;23.50;60.50;;;;;;645462;221;26612;-72
2022/06/28 10:17:16;;;;;;;1.10;0.85;;;24.70;58.30;;;;;;638607;224;26538;-72
2022/06/28 10:19:42;;;;;;;0.80;0.80;;;24.50;57.70;;;;;;644003;220;26577;-72
2022/06/28 10:22:11;;;;;;;0.80;0.80;;;24.00;58.00;;;;;;641795;221;26788;-72
2022/06/28 10:24:53;;;;;;;1.55;0.70;;;24.20;57.20;;;;;;638644;224;26564;-72
2022/06/28 10:27:21;;;;;;;0.90;0.80;;;24.50;57.30;;;;;;634899;224;26582;-72
2022/06/28 10:30:18;;;;;;;0.82;0.82;;;24.70;56.40;;;;;;645185;221;26558;-72
2022/06/28 10:32:47;;;;;;;0.73;0.73;;;24.70;56.80;;;;;;650097;221;26756;-72
2022/06/28 10:35:21;;;;;;;0.80;0.80;;;24.80;56.70;;;;;;650690;221;26544;-72
2022/06/28 10:38:13;;;;;;;1.10;1.10;;;24.80;56.70;;;;;;649629;220;26723;-71
2022/06/28 10:40:49;;;;;;;3.40;1.10;;;25.00;56.30;;;;;;649525;220;26525;-71
2022/06/28 10:43:16;;;;;;;0.90;0.90;;;25.00;55.60;;;;;;650804;221;26524;-71
2022/06/28 10:45:56;;;;;;;0.70;0.70;;;24.80;55.50;;;;;;647192;221;26508;-71
2022/06/28 10:48:23;;;;;;;0.85;0.85;;;25.00;55.40;;;;;;650396;221;27253;-71
2022/06/28 10:50:56;;;;;;;1.30;1.20;;;25.10;55.00;;;;;;650777;221;26627;-71
2022/06/28 10:53:23;;;;;;;1.30;0.70;;;25.10;55.00;;;;;;650448;221;26580;-71
2022/06/28 10:56:02;;;;;;;0.65;0.65;;;25.30;54.80;;;;;;650827;220;26551;-72
2022/06/28 10:58:29;;;;;;;1.58;0.80;;;25.00;54.00;;;;;;650780;221;27219;-71
2022/06/28 11:00:56;;;;;;;1.10;1.10;;;25.20;54.30;;;;;;650781;221;26588;-71
2022/06/28 11:03:24;;;;;;;0.95;0.95;;;25.20;53.80;;;;;;650838;221;26512;-71
2022/06/28 11:05:52;;;;;;;1.00;0.90;;;24.60;53.80;;;;;;650769;219;26514;-71
2022/06/28 11:08:34;;;;;;;0.80;0.80;;;24.60;53.80;;;;;;650795;221;26751;-71
2022/06/28 11:11:02;;;;;;;0.75;0.75;;;24.30;54.60;;;;;;650704;219;26616;-70
2022/06/28 11:13:29;;;;;;;1.45;0.70;;;24.10;55.40;;;;;;652344;220;26544;-71
2022/06/28 11:15:57;;;;;;;0.93;0.90;;;24.20;55.60;;;;;;652015;219;26556;-71
2022/06/28 11:18:24;;;;;;;0.60;0.60;;;24.20;55.60;;;;;;651775;219;26513;-71
2022/06/28 11:20:51;;;;;;;1.37;0.85;;;24.40;55.60;;;;;;651628;219;26540;-71
2022/06/28 11:23:25;;;;;;;1.12;0.82;;;24.70;55.80;;;;;;651394;221;26784;-71
2022/06/28 11:28:25;;;;;;;0.68;0.62;;;25.40;52.50;;;;;;651473;221;26571;-71
2022/06/28 11:30:53;;;;;;;1.05;0.70;;;25.40;52.10;;;;;;647035;221;26536;-71
2022/06/28 11:33:21;;;;;;;0.80;0.80;;;25.60;52.40;;;;;;645844;221;26555;-71
2022/06/28 11:35:50;;;;;;;3.25;0.82;;;25.40;52.40;;;;;;643667;221;26559;-73
2022/06/28 11:38:17;;;;;;;1.12;0.50;;;25.40;52.40;;;;;;641788;221;26522;-72
2022/06/28 11:40:44;;;;;;;1.30;0.80;;;25.70;51.70;;;;;;639099;221;26811;-71
2022/06/28 11:43:11;;;;;;;1.50;0.70;;;25.60;51.90;;;;;;647686;219;26591;-72
2022/06/28 11:45:39;;;;;;;0.73;0.70;;;25.50;51.20;;;;;;638177;224;26574;-72
2022/06/28 11:48:07;;;;;;;1.92;1.02;;;25.80;51.10;;;;;;637825;224;26564;-74
2022/06/28 11:50:41;;;;;;;2.37;0.73;;;25.90;50.90;;;;;;636989;222;26588;-65
2022/06/28 11:53:09;;;;;;;0.73;0.65;;;26.20;50.00;;;;;;648402;221;26517;-65
2022/06/28 11:55:41;;;;;;;0.70;0.70;;;26.50;49.30;;;;;;638697;221;26521;-65
2022/06/28 11:58:10;;;;;;;0.70;0.70;;;26.50;49.30;;;;;;638186;225;26563;-65
2022/06/28 12:00:37;;;;;;;1.20;0.70;;;27.00;49.10;;;;;;638829;224;26833;-65
2022/06/28 12:03:05;;;;;;;0.70;0.70;;;26.90;50.00;;;;;;639797;221;26570;-65
2022/06/28 12:05:32;;;;;;;1.50;0.93;;;26.90;48.60;;;;;;641465;223;26535;-67
2022/06/28 12:07:59;;;;;;;0.85;0.85;;;26.60;48.10;;;;;;641048;223;26777;-67
2022/06/28 12:10:28;;;;;;;2.47;0.60;;;26.30;48.60;;;;;;647496;221;26603;-67
2022/06/28 12:12:54;;;;;;;2.05;1.05;;;26.00;48.50;;;;;;639683;221;27357;-69
2022/06/28 12:15:25;;;;;;;0.93;0.80;;;25.40;49.00;;;;;;642257;221;26602;-65
2022/06/28 12:17:52;;;;;;;2.72;1.23;;;25.40;49.00;;;;;;644156;221;26749;-70
2022/06/28 12:20:19;;;;;;;1.27;1.17;;;26.10;48.80;;;;;;637885;219;26588;-65
2022/06/28 12:22:47;;;;;;;2.90;1.20;;;26.60;46.60;;;;;;638488;220;26754;-66
2022/06/28 12:25:14;;;;;;;1.05;0.90;;;27.00;46.20;;;;;;643163;220;26563;-66
2022/06/28 12:27:42;;;;;;;1.25;1.10;;;27.10;45.40;;;;;;640687;220;26496;-71
2022/06/28 12:30:10;;;;;;;0.88;0.80;;;26.60;45.60;;;;;;645237;216;26527;-67
2022/06/28 12:32:37;;;;;;;1.00;1.00;;;26.60;45.60;;;;;;638217;223;26750;-68
2022/06/28 12:35:06;;;;;;;0.93;0.70;;;26.30;46.00;;;;;;639472;224;26506;-67
2022/06/28 12:37:33;;;;;;;0.77;0.77;;;26.40;46.40;;;;;;644049;221;26559;-68
2022/06/28 12:40:00;;;;;;;1.30;0.95;;;26.50;46.10;;;;;;644055;221;26593;-68
2022/06/28 12:42:29;;;;;;;1.35;0.95;;;26.50;45.10;;;;;;647893;221;26480;-64
2022/06/28 12:44:55;;;;;;;1.12;1.00;;;26.40;45.70;;;;;;639044;225;26531;-69
2022/06/28 12:47:22;;;;;;;1.27;1.00;;;26.60;45.10;;;;;;639965;221;26749;-68
2022/06/28 12:49:49;;;;;;;0.90;0.90;;;27.40;44.50;;;;;;638713;224;26592;-68
2022/06/28 12:52:16;;;;;;;0.93;0.65;;;28.60;42.60;;;;;;647263;221;26838;-68
2022/06/28 12:54:43;;;;;;;0.75;0.75;;;29.10;41.80;;;;;;642148;221;26541;-73
2022/06/28 12:57:11;;;;;;;1.10;1.00;;;29.80;41.60;;;;;;643823;221;26763;-73
2022/06/28 12:59:38;;;;;;;0.85;0.85;;;30.70;39.80;;;;;;648665;221;26530;-69
2022/06/28 13:02:06;;;;;;;0.82;0.80;;;31.20;39.30;;;;;;645221;221;26768;-69
2022/06/28 13:04:34;;;;;;;1.67;0.90;;;32.00;37.90;;;;;;643563;221;26532;-69
2022/06/28 13:07:01;;;;;;;0.88;0.88;;;30.80;39.00;;;;;;639972;221;26506;-68